KMKO/MKO METAR and TAF weather

Enter ICAO airport designator
Station Type Date Time Source
KMKO METAR 2019/10/15 17:53 UTC NOAA

KMKO 151753Z AUTO 00000KT 10SM OVC015 23/19 A2990 RMK AO2 SLP120 T02280189 10228 20178 55003


Station Type Date Time Source
KMKO Decoded METAR 2019/10/15 17:53 UTC NOAA

MUSKOGEE DAVIS FIELD, OK, United States (KMKO) 35-39N 95-22W 185M
Oct 15, 2019 - 01:53 PM EDT / 2019.10.15 1753 UTC
Wind: Calm:0
Visibility: 10 mile(s):0
Sky conditions: overcast
Temperature: 73.0 F (22.8 C)
Dew Point: 66.0 F (18.9 C)
Relative Humidity: 78%
Pressure (altimeter): 29.9 in. Hg (1012 hPa)
Pressure tendency: 0.01 inches (0.3 hPa) lower than three hours ago
ob: KMKO 151753Z AUTO 00000KT 10SM OVC015 23/19 A2990 RMK AO2 SLP120 T02280189 10228 20178 55003
cycle: 18

Station Type Date Time Source
KMKO TAF UTC NOAA

Error!

Example: see airport list